createdAt,value
2022-08-10T00:01:57.341Z,16.60
2022-08-10T00:06:59.518Z,16.34
2022-08-10T00:12:01.594Z,16.43
2022-08-10T00:17:04.079Z,16.42
2022-08-10T00:22:06.383Z,16.54
2022-08-10T00:27:47.027Z,16.36
2022-08-10T00:32:30.940Z,16.31
2022-08-10T00:37:33.030Z,16.07
2022-08-10T00:42:35.528Z,15.95
2022-08-10T00:47:38.017Z,15.69
2022-08-10T00:52:40.796Z,15.83
2022-08-10T00:57:43.154Z,15.87
2022-08-10T01:02:45.754Z,15.81
2022-08-10T01:08:10.694Z,15.63
2022-08-10T01:13:51.937Z,15.58
2022-08-10T01:18:54.079Z,15.65
2022-08-10T01:24:14.714Z,15.83
2022-08-10T01:29:43.522Z,15.95
2022-08-10T01:35:06.820Z,15.82
2022-08-10T01:40:13.920Z,15.93
2022-08-10T01:45:21.597Z,15.67
2022-08-10T01:50:36.020Z,15.18
2022-08-10T01:55:58.809Z,15.20
2022-08-10T02:01:03.168Z,15.39
2022-08-10T02:06:08.484Z,15.30
2022-08-10T02:11:12.506Z,15.07
2022-08-10T02:16:16.097Z,14.92
2022-08-10T02:21:22.536Z,14.85
2022-08-10T02:26:26.586Z,14.76
2022-08-10T02:31:30.254Z,14.78
2022-08-10T02:36:38.500Z,14.68
2022-08-10T02:45:12.827Z,15.17
2022-08-10T02:47:26.867Z,15.37
2022-08-10T02:52:41.457Z,15.34
2022-08-10T02:58:12.534Z,15.30
2022-08-10T03:03:19.709Z,15.16
2022-08-10T03:08:26.232Z,15.29
2022-08-10T03:13:31.265Z,15.36
2022-08-10T03:18:34.502Z,15.36
2022-08-10T03:23:39.165Z,15.44
2022-08-10T03:28:41.830Z,15.42
2022-08-10T03:33:45.101Z,14.93
2022-08-10T03:38:51.964Z,15.13
2022-08-10T03:43:56.155Z,15.21
2022-08-10T03:49:01.649Z,15.22
2022-08-10T03:54:07.195Z,15.39
2022-08-10T03:59:13.034Z,15.69
2022-08-10T04:04:20.602Z,15.89
2022-08-10T04:09:53.326Z,16.29
2022-08-10T04:14:53.723Z,16.57
2022-08-10T04:19:58.075Z,16.88
2022-08-10T04:25:05.049Z,17.02
2022-08-10T04:30:08.129Z,17.15
2022-08-10T04:35:11.479Z,17.26
2022-08-10T04:40:29.840Z,17.46
2022-08-10T04:45:48.612Z,17.72
2022-08-10T04:50:53.672Z,18.00
2022-08-10T04:55:56.132Z,18.36
2022-08-10T05:00:58.354Z,18.46
2022-08-10T05:06:00.548Z,18.75
2022-08-10T05:11:03.845Z,18.93
2022-08-10T05:16:11.072Z,19.20
2022-08-10T05:21:53.797Z,19.11
2022-08-10T05:27:09.465Z,19.00
2022-08-10T05:32:15.011Z,19.21
2022-08-10T05:38:09.692Z,19.39
2022-08-10T05:42:41.938Z,19.82
2022-08-10T05:48:55.623Z,20.14
2022-08-10T05:54:02.803Z,20.30
2022-08-10T05:58:29.227Z,21.02
2022-08-10T06:03:36.612Z,21.58
2022-08-10T06:09:19.613Z,22.65
2022-08-10T06:14:41.702Z,24.59
2022-08-10T06:19:55.040Z,26.63
2022-08-10T06:25:31.955Z,26.96
2022-08-10T06:30:21.296Z,30.27
2022-08-10T06:35:29.470Z,32.05
2022-08-10T06:40:38.339Z,33.84
2022-08-10T06:46:07.560Z,34.98
2022-08-10T06:51:24.991Z,35.31
2022-08-10T07:02:52.157Z,34.53
2022-08-10T07:08:01.256Z,34.28
2022-08-10T07:13:06.931Z,35.00
2022-08-10T07:18:11.422Z,31.65
2022-08-10T07:23:55.602Z,29.85
2022-08-10T07:28:37.387Z,29.39
2022-08-10T07:33:42.588Z,28.66
2022-08-10T07:38:46.484Z,27.54
2022-08-10T07:43:51.128Z,26.31
2022-08-10T07:49:03.048Z,26.03
2022-08-10T07:54:32.218Z,28.12
2022-08-10T07:59:41.139Z,29.62
2022-08-10T08:04:44.890Z,30.66
2022-08-10T08:09:57.887Z,31.28
2022-08-10T08:16:18.352Z,30.00
2022-08-10T08:20:27.258Z,28.28
2022-08-10T08:25:33.684Z,27.23
2022-08-10T08:30:38.117Z,26.15
2022-08-10T08:35:41.163Z,25.55
2022-08-10T08:40:51.240Z,25.22
2022-08-10T08:46:11.920Z,25.39
2022-08-10T08:52:09.849Z,25.26
2022-08-10T08:57:08.291Z,25.69
2022-08-10T09:02:22.574Z,26.01
2022-08-10T09:08:00.164Z,26.05
2022-08-10T09:13:27.406Z,25.78
2022-08-10T09:18:40.438Z,26.51
2022-08-10T09:24:05.755Z,27.12
2022-08-10T09:29:13.578Z,27.25
2022-08-10T09:36:22.447Z,26.94
2022-08-10T09:40:56.326Z,27.37
2022-08-10T09:45:40.590Z,27.66
2022-08-10T09:56:49.123Z,27.34
2022-08-10T10:02:35.421Z,29.13
2022-08-10T10:07:43.949Z,28.88
2022-08-10T10:12:53.642Z,30.06
2022-08-10T10:18:15.366Z,30.08
2022-08-10T10:24:19.815Z,30.27
2022-08-10T10:29:44.763Z,31.96
2022-08-10T10:34:41.976Z,32.20
2022-08-10T10:39:47.732Z,32.29
2022-08-10T10:45:04.726Z,32.21
2022-08-10T10:50:15.312Z,31.63
2022-08-10T10:55:33.841Z,31.63
2022-08-10T11:00:59.296Z,31.36
2022-08-10T11:06:09.905Z,30.85
2022-08-10T11:11:59.658Z,31.14
2022-08-10T11:16:49.909Z,30.00
2022-08-10T11:22:15.917Z,29.71
2022-08-10T11:27:32.352Z,30.81
2022-08-10T11:32:58.204Z,29.51
2022-08-10T11:38:31.038Z,29.78
2022-08-10T11:43:32.922Z,31.70
2022-08-10T11:48:53.179Z,31.58
2022-08-10T11:54:08.188Z,31.37
2022-08-10T11:59:29.880Z,32.11
2022-08-10T12:04:35.235Z,30.47
2022-08-10T12:10:09.880Z,29.25
2022-08-10T12:15:11.936Z,29.11
2022-08-10T12:20:36.917Z,29.14
2022-08-10T12:25:55.647Z,29.11
2022-08-10T12:31:04.119Z,28.40
2022-08-10T12:36:18.603Z,29.12
2022-08-10T12:41:44.636Z,29.88
2022-08-10T12:47:00.422Z,29.23
2022-08-10T12:52:25.042Z,28.38
2022-08-10T12:57:28.737Z,28.64
2022-08-10T13:02:43.980Z,28.39
2022-08-10T13:08:27.103Z,28.57
2022-08-10T13:13:37.090Z,29.09
2022-08-10T13:18:42.787Z,29.42
2022-08-10T13:24:03.918Z,29.76
2022-08-10T13:29:15.533Z,29.67
2022-08-10T13:34:43.123Z,28.99
2022-08-10T13:39:57.828Z,28.58
2022-08-10T13:45:09.514Z,27.76
2022-08-10T13:50:14.928Z,27.52
2022-08-10T13:55:20.883Z,27.35
2022-08-10T14:00:38.315Z,27.13
2022-08-10T14:05:50.950Z,27.03
2022-08-10T14:11:08.509Z,26.87
2022-08-10T14:16:13.757Z,27.22
2022-08-10T14:21:16.383Z,27.17
2022-08-10T14:26:30.975Z,27.56
2022-08-10T14:31:36.782Z,27.67
2022-08-10T14:36:56.530Z,27.77
2022-08-10T14:42:20.070Z,27.97
2022-08-10T14:47:59.467Z,27.47
2022-08-10T14:52:53.333Z,27.23
2022-08-10T14:58:17.183Z,27.10
2022-08-10T15:04:01.890Z,26.61
2022-08-10T15:08:48.455Z,26.63
2022-08-10T15:14:15.052Z,26.61
2022-08-10T15:20:03.364Z,26.98
2022-08-10T15:25:18.584Z,27.07
2022-08-10T15:30:34.122Z,27.08
2022-08-10T15:35:55.809Z,26.81
2022-08-10T15:40:59.750Z,26.42
2022-08-10T15:46:15.876Z,26.29
2022-08-10T15:51:53.957Z,26.23
2022-08-10T15:57:07.430Z,26.15
2022-08-10T16:02:17.677Z,25.91
2022-08-10T16:07:45.267Z,25.88
2022-08-10T16:13:00.950Z,25.72
2022-08-10T16:18:11.355Z,25.74
2022-08-10T16:23:18.160Z,25.80
2022-08-10T16:28:23.785Z,25.68
2022-08-10T16:33:53.344Z,25.61
2022-08-10T16:38:54.037Z,25.35
2022-08-10T16:43:59.694Z,25.28
2022-08-10T16:49:02.844Z,25.21
2022-08-10T16:54:10.082Z,25.13
2022-08-10T16:59:17.819Z,24.96
2022-08-10T17:04:24.910Z,24.60
2022-08-10T17:09:34.566Z,24.54
2022-08-10T17:14:39.375Z,24.38
2022-08-10T17:19:45.133Z,24.12
2022-08-10T17:24:51.471Z,23.94
2022-08-10T17:30:04.823Z,23.71
2022-08-10T17:35:22.501Z,23.55
2022-08-10T17:40:29.062Z,23.29
2022-08-10T17:45:48.377Z,23.03
2022-08-10T17:50:53.269Z,23.10
2022-08-10T17:55:58.430Z,23.07
2022-08-10T18:01:38.601Z,22.90
2022-08-10T18:06:26.242Z,22.93
2022-08-10T18:11:31.516Z,22.81
2022-08-10T18:16:35.022Z,22.72
2022-08-10T18:21:43.872Z,22.74
2022-08-10T18:26:57.472Z,22.54
2022-08-10T18:32:03.282Z,22.46
2022-08-10T18:37:09.403Z,22.42
2022-08-10T18:42:17.359Z,22.37
2022-08-10T18:47:33.936Z,22.26
2022-08-10T18:52:38.589Z,22.16
2022-08-10T18:57:52.832Z,22.15
2022-08-10T19:03:22.574Z,21.99
2022-08-10T19:08:50.192Z,21.91
2022-08-10T19:14:00.879Z,21.90
2022-08-10T19:19:31.010Z,21.84
2022-08-10T19:25:01.737Z,21.60
2022-08-10T19:30:13.432Z,21.65
2022-08-10T19:35:22.416Z,21.55
2022-08-10T19:40:43.336Z,21.55
2022-08-10T19:46:03.078Z,21.45
2022-08-10T19:51:19.133Z,21.22
2022-08-10T19:56:36.006Z,21.06
2022-08-10T20:01:54.380Z,21.09
2022-08-10T20:07:12.662Z,21.37
2022-08-10T20:12:40.538Z,21.18
2022-08-10T20:17:55.382Z,21.36
2022-08-10T20:23:26.664Z,21.17
2022-08-10T20:28:40.899Z,21.26
2022-08-10T20:33:57.542Z,20.98
2022-08-10T20:39:04.101Z,20.91
2022-08-10T20:44:44.025Z,20.95
2022-08-10T20:50:16.066Z,20.73
2022-08-10T20:55:20.908Z,20.48
2022-08-10T21:00:24.431Z,20.50
2022-08-10T21:06:00.933Z,20.38
2022-08-10T21:11:33.571Z,20.27
2022-08-10T21:16:38.241Z,20.35
2022-08-10T21:21:59.105Z,20.21
2022-08-10T21:27:16.915Z,20.19
2022-08-10T21:32:28.884Z,20.00
2022-08-10T21:44:26.228Z,19.34
2022-08-10T21:50:11.133Z,19.34
2022-08-10T21:55:58.112Z,19.37
2022-08-10T22:01:39.319Z,19.27
2022-08-10T22:07:03.658Z,19.18
2022-08-10T22:12:31.900Z,19.00
2022-08-10T22:18:04.859Z,19.09
2022-08-10T22:23:41.030Z,18.87
2022-08-10T22:29:07.661Z,18.06
2022-08-10T22:31:28.078Z,19.37
2022-08-10T22:35:13.016Z,17.79
2022-08-10T22:40:41.198Z,17.75
2022-08-10T22:46:12.904Z,17.54
2022-08-10T22:51:23.266Z,17.55
2022-08-10T22:56:44.426Z,17.40
2022-08-10T23:02:07.956Z,17.40
2022-08-10T23:07:37.212Z,17.32
2022-08-10T23:13:05.872Z,16.80
2022-08-10T23:18:31.631Z,16.78
2022-08-10T23:23:42.270Z,17.02
2022-08-10T23:29:05.174Z,17.15
2022-08-10T23:34:11.805Z,16.84
2022-08-10T23:39:26.986Z,16.98
2022-08-10T23:44:36.104Z,16.84
2022-08-10T23:49:41.479Z,16.86
2022-08-10T23:54:47.184Z,16.72
